Time;durP1;ratioP1;P1;durP2;ratioP2;P2;SDS_P1;SDS_P2;PMS_P1;PMS_P2;Temp;Humidity;BMP_temperature;BMP_pressure;BME280_temperature;BME280_humidity;BME280_pressure;Samples;Min_cycle;Max_cycle;Signal;HPM_P1;HPM_P2
2021/05/26 00:02:06;;;;;;;3.90;0.60;;;;;;;8.25;68.12;100355.01;125691;1104;22868;-59
2021/05/26 00:04:35;;;;;;;;;;;;;;;8.23;68.25;100354.67;125632;1104;22785;-55
2021/05/26 00:07:05;;;;;;;7.40;0.80;;;;;;;8.21;68.11;100346.02;125438;1104;21474;-58
2021/05/26 00:09:35;;;;;;;6.40;0.68;;;;;;;8.19;68.22;100346.45;125946;1104;22770;-58
2021/05/26 00:12:07;;;;;;;5.03;0.88;;;;;;;8.17;68.36;100351.70;125605;1104;22750;-58
2021/05/26 00:14:37;;;;;;;4.87;0.60;;;;;;;8.17;68.29;100350.95;125665;1098;22813;-57
2021/05/26 00:17:07;;;;;;;5.95;0.60;;;;;;;8.16;68.35;100352.16;125594;1100;25870;-60
2021/05/26 00:19:39;;;;;;;6.10;0.63;;;;;;;8.15;68.33;100354.16;125643;1104;24409;-59
2021/05/26 00:22:09;;;;;;;5.43;0.60;;;;;;;8.18;68.37;100350.48;125648;1104;22772;-57
2021/05/26 00:24:39;;;;;;;6.53;0.65;;;;;;;8.17;68.44;100348.16;125653;1104;22754;-61
2021/05/26 00:27:09;;;;;;;4.45;0.60;;;;;;;8.15;68.54;100350.63;125578;1099;22803;-59
2021/05/26 00:29:39;;;;;;;4.37;0.70;;;;;;;8.15;68.65;100345.82;125620;1099;27255;-61
2021/05/26 00:32:09;;;;;;;3.20;0.53;;;;;;;8.13;68.61;100355.88;125606;1099;26705;-57
2021/05/26 00:34:39;;;;;;;4.53;0.60;;;;;;;8.11;68.75;100350.76;125627;1104;22832;-58
2021/05/26 00:37:10;;;;;;;6.77;0.57;;;;;;;8.10;68.91;100356.78;125596;1100;27173;-57
2021/05/26 00:39:46;;;;;;;5.90;0.55;;;;;;;8.10;68.84;100360.34;125606;1104;23394;-60
2021/05/26 00:42:21;;;;;;;4.60;0.47;;;;;;;8.07;68.79;100358.47;125628;1104;22772;-59
2021/05/26 00:44:55;;;;;;;4.07;0.50;;;;;;;8.06;68.81;100354.16;125740;1100;22828;-58
2021/05/26 00:47:40;;;;;;;4.23;0.50;;;;;;;8.04;69.18;100348.28;125863;1099;27122;-59
2021/05/26 00:50:14;;;;;;;2.45;0.40;;;;;;;8.04;68.97;100347.50;125624;1104;22993;-60
2021/05/26 00:52:47;;;;;;;1.67;0.43;;;;;;;8.02;69.02;100350.75;125851;1105;22754;-58
2021/05/26 00:55:21;;;;;;;2.13;0.43;;;;;;;8.02;69.09;100347.19;125727;1104;22777;-59
2021/05/26 00:57:52;;;;;;;5.30;0.60;;;;;;;8.02;69.10;100334.07;125821;1100;26219;-60
2021/05/26 01:00:26;;;;;;;1.93;0.50;;;;;;;8.03;69.23;100334.82;125715;1098;26301;-59
2021/05/26 01:02:56;;;;;;;3.13;0.50;;;;;;;8.05;69.33;100329.58;125743;1099;26184;-59
2021/05/26 01:05:27;;;;;;;2.50;0.40;;;;;;;8.04;69.31;100334.38;125925;1104;22826;-57
2021/05/26 01:07:57;;;;;;;5.80;0.70;;;;;;;8.05;69.39;100337.91;125752;1099;24744;-59
2021/05/26 01:10:28;;;;;;;8.23;1.00;;;;;;;8.05;69.40;100338.70;125579;1105;22767;-59
2021/05/26 01:12:58;;;;;;;2.43;0.47;;;;;;;8.05;69.68;100332.35;125753;1098;25903;-59
2021/05/26 01:15:29;;;;;;;6.35;0.60;;;;;;;8.05;69.19;100335.91;125739;1097;26661;-61
2021/05/26 01:17:58;;;;;;;;;;;;;;;8.05;69.37;100338.70;125738;1104;22783;-57
2021/05/26 01:20:30;;;;;;;3.43;0.50;;;;;;;8.05;69.52;100341.48;125737;1100;24524;-62
2021/05/26 01:23:01;;;;;;;2.13;0.50;;;;;;;8.05;69.46;100340.69;125812;1104;22891;-58
2021/05/26 01:25:31;;;;;;;4.48;0.60;;;;;;;8.04;69.45;100336.38;125654;1099;27275;-59
2021/05/26 01:28:00;;;;;;;1.97;0.50;;;;;;;8.05;69.65;100329.58;125701;1100;22744;-57
2021/05/26 01:30:30;;;;;;;3.03;0.50;;;;;;;8.04;69.63;100325.27;125627;1104;22743;-60
2021/05/26 01:33:00;;;;;;;3.48;0.70;;;;;;;8.03;69.73;100327.27;125723;1100;26223;-58
2021/05/26 01:35:31;;;;;;;4.33;0.60;;;;;;;8.02;69.73;100319.39;125875;1099;23458;-58
2021/05/26 01:38:00;;;;;;;2.70;0.40;;;;;;;8.03;69.54;100326.48;125635;1099;22771;-61
2021/05/26 01:40:30;;;;;;;4.88;0.68;;;;;;;8.00;69.73;100322.64;125667;1104;22822;-57
2021/05/26 01:43:01;;;;;;;7.13;0.80;;;;;;;7.98;69.75;100324.32;125737;1099;22780;-59
2021/05/26 01:45:31;;;;;;;4.20;0.70;;;;;;;7.98;69.88;100325.10;125632;1099;24407;-60
2021/05/26 01:48:00;;;;;;;;;;;;;;;7.98;69.96;100319.55;125720;1104;22803;-59
2021/05/26 01:50:30;;;;;;;5.20;0.60;;;;;;;7.95;69.99;100323.23;125674;1104;24208;-57
2021/05/26 01:53:03;;;;;;;4.20;0.60;;;;;;;7.93;70.27;100322.13;125751;1100;22829;-57
2021/05/26 01:55:34;;;;;;;1.90;0.50;;;;;;;7.87;70.28;100323.97;125751;1100;22803;-60
2021/05/26 01:58:04;;;;;;;3.23;0.70;;;;;;;7.87;70.15;100327.53;125664;1105;22744;-58
2021/05/26 02:00:36;;;;;;;3.00;0.60;;;;;;;7.87;70.53;100323.97;125669;1104;22816;-57
2021/05/26 02:03:06;;;;;;;5.10;0.60;;;;;;;7.83;70.29;100324.13;125711;1104;22774;-58
2021/05/26 02:05:36;;;;;;;3.85;1.00;;;;;;;7.81;70.46;100328.58;125716;1104;24177;-58
2021/05/26 02:08:08;;;;;;;3.90;0.60;;;;;;;7.82;70.66;100336.45;125772;1104;22754;-58
2021/05/26 02:13:27;;;;;;;2.97;0.60;;;;;;;7.85;70.56;100334.77;125591;1098;26219;-59
2021/05/26 02:15:57;;;;;;;6.77;0.70;;;;;;;7.85;70.71;100334.77;125668;1105;22757;-61
2021/05/26 02:18:27;;;;;;;4.70;0.67;;;;;;;7.84;70.57;100330.46;126014;1104;22772;-61
2021/05/26 02:20:57;;;;;;;5.18;0.70;;;;;;;7.82;70.73;100330.15;126103;1104;22829;-60
2021/05/26 02:23:27;;;;;;;4.33;0.75;;;;;;;7.81;70.85;100334.92;125843;1098;27275;-60
2021/05/26 02:25:58;;;;;;;3.60;0.70;;;;;;;7.80;70.85;100335.39;125689;1104;22778;-60
2021/05/26 02:28:28;;;;;;;3.77;0.60;;;;;;;7.80;70.70;100335.39;125721;1098;25989;-60
2021/05/26 02:30:58;;;;;;;3.50;0.75;;;;;;;7.80;70.93;100343.73;125593;1104;22771;-57
2021/05/26 02:33:29;;;;;;;4.10;0.50;;;;;;;7.79;70.93;100340.16;126198;1100;22761;-59
2021/05/26 02:35:59;;;;;;;3.30;0.50;;;;;;;7.80;71.13;100349.28;125631;1104;22819;-58
2021/05/26 02:38:29;;;;;;;3.35;0.60;;;;;;;7.82;70.95;100344.05;125636;1104;22746;-58
2021/05/26 02:40:59;;;;;;;6.28;0.70;;;;;;;7.83;70.99;100343.58;125640;1105;22842;-59
2021/05/26 02:43:30;;;;;;;3.40;0.67;;;;;;;7.84;70.87;100347.89;125712;1104;22781;-59
2021/05/26 02:46:00;;;;;;;6.35;0.70;;;;;;;7.85;70.97;100340.33;125695;1105;23489;-58
2021/05/26 02:48:30;;;;;;;3.73;0.85;;;;;;;7.86;70.95;100342.64;125667;1104;22836;-58
2021/05/26 02:51:00;;;;;;;5.28;0.75;;;;;;;7.87;70.96;100346.20;125693;1104;22759;-59
2021/05/26 02:53:30;;;;;;;2.30;0.50;;;;;;;7.87;71.00;100348.98;125679;1099;26326;-60
2021/05/26 02:56:00;;;;;;;3.48;0.80;;;;;;;7.85;70.96;100352.23;125771;1098;26194;-57
2021/05/26 02:58:30;;;;;;;3.28;0.73;;;;;;;7.85;71.13;100352.23;125583;1104;22764;-58
2021/05/26 03:01:04;;;;;;;6.27;0.70;;;;;;;7.86;70.91;100350.23;125696;1099;27288;-58
2021/05/26 03:03:34;;;;;;;5.63;0.60;;;;;;;7.89;71.36;100354.86;125644;1105;22742;-60
2021/05/26 03:06:04;;;;;;;5.20;0.60;;;;;;;7.92;71.30;100359.52;125649;1104;22816;-60
2021/05/26 03:08:34;;;;;;;4.23;0.70;;;;;;;7.94;71.31;100357.05;125691;1104;22744;-59
2021/05/26 03:11:05;;;;;;;4.23;0.70;;;;;;;7.97;71.41;100353.34;125672;1104;22791;-58
2021/05/26 03:13:35;;;;;;;6.20;0.80;;;;;;;7.98;71.45;100347.34;125770;1104;22775;-58
2021/05/26 03:16:10;;;;;;;6.35;1.58;;;;;;;8.02;71.45;100352.75;125634;1104;22771;-58
2021/05/26 03:18:41;;;;;;;4.20;0.70;;;;;;;8.05;71.45;100351.81;125774;1100;27098;-57
2021/05/26 03:21:11;;;;;;;;;;;;;;;8.06;71.30;100354.16;125788;1104;22768;-58
2021/05/26 03:23:43;;;;;;;4.20;0.67;;;;;;;8.09;71.44;100353.22;125751;1105;24867;-58
2021/05/26 03:26:14;;;;;;;2.13;0.50;;;;;;;8.14;71.40;100349.07;125734;1104;24537;-57
2021/05/26 03:28:46;;;;;;;7.20;0.70;;;;;;;8.17;71.21;100353.73;125622;1104;22749;-60
2021/05/26 03:31:16;;;;;;;5.83;0.70;;;;;;;8.22;71.25;100352.33;125842;1099;23624;-59
2021/05/26 03:33:46;;;;;;;5.60;0.60;;;;;;;8.24;71.27;100349.85;125592;1104;22835;-58
2021/05/26 03:36:17;;;;;;;2.93;0.50;;;;;;;8.26;71.35;100345.41;125569;1100;22828;-59
2021/05/26 03:38:46;;;;;;;3.70;0.50;;;;;;;8.30;71.34;100348.82;125572;1104;23010;-59
2021/05/26 03:41:19;;;;;;;3.97;0.73;;;;;;;8.32;71.43;100349.13;125556;1104;22754;-59
2021/05/26 03:43:49;;;;;;;2.87;0.50;;;;;;;8.36;71.23;100349.76;125591;1104;22774;-59
2021/05/26 03:46:19;;;;;;;;;;;;;;;8.40;71.30;100347.59;125596;1104;22793;-59
2021/05/26 03:48:51;;;;;;;5.85;0.70;;;;;;;8.43;71.25;100343.91;125697;1104;23171;-57
2021/05/26 03:51:21;;;;;;;2.40;0.50;;;;;;;8.45;71.10;100337.88;125519;1104;22775;-61
2021/05/26 03:53:53;;;;;;;2.13;0.53;;;;;;;8.47;71.10;100338.18;125608;1104;22768;-59
2021/05/26 03:56:23;;;;;;;3.50;0.70;;;;;;;8.50;71.07;100340.05;125636;1098;26105;-58
2021/05/26 03:58:53;;;;;;;5.63;0.60;;;;;;;8.52;70.97;100332.02;125590;1104;22754;-61
2021/05/26 04:01:23;;;;;;;5.50;0.65;;;;;;;8.54;71.09;100333.11;125580;1099;27173;-59
2021/05/26 04:03:53;;;;;;;3.85;0.48;;;;;;;8.54;70.97;100335.89;125649;1104;22750;-58
2021/05/26 04:06:24;;;;;;;2.83;0.40;;;;;;;8.57;70.75;100328.59;125849;1100;27661;-58
2021/05/26 04:08:56;;;;;;;5.40;0.60;;;;;;;8.60;70.95;100334.03;125750;1104;22738;-59
2021/05/26 04:11:27;;;;;;;4.43;0.60;;;;;;;8.60;70.89;100331.25;125522;1100;27139;-60
2021/05/26 04:13:57;;;;;;;4.13;0.57;;;;;;;8.62;70.88;100325.99;125890;1104;22819;-59
2021/05/26 04:16:26;;;;;;;4.95;0.78;;;;;;;8.68;70.86;100318.56;125803;1104;22753;-61
2021/05/26 04:18:56;;;;;;;3.50;0.75;;;;;;;8.75;70.90;100325.84;125665;1100;27118;-60
2021/05/26 04:21:26;;;;;;;4.53;0.45;;;;;;;8.82;70.76;100320.72;125590;1104;22737;-61
2021/05/26 04:23:56;;;;;;;5.35;0.48;;;;;;;8.90;70.53;100323.95;125735;1104;22744;-59
2021/05/26 04:26:26;;;;;;;4.83;0.50;;;;;;;8.94;70.50;100325.34;125994;1104;22741;-60
2021/05/26 04:28:56;;;;;;;3.98;0.50;;;;;;;8.98;70.37;100312.03;126119;1100;22747;-60
2021/05/26 04:31:26;;;;;;;4.38;0.50;;;;;;;9.05;70.31;100315.73;125991;1105;22784;-59
2021/05/26 04:33:56;;;;;;;2.55;0.50;;;;;;;9.13;70.22;100319.74;126063;1100;22809;-58
2021/05/26 04:36:27;;;;;;;4.35;0.50;;;;;;;9.20;70.14;100323.00;125984;1105;25525;-60
2021/05/26 04:38:56;;;;;;;4.60;0.50;;;;;;;9.29;70.10;100317.38;125962;1104;25539;-62
2021/05/26 04:41:26;;;;;;;4.08;0.40;;;;;;;9.38;69.90;100311.02;125899;1104;24182;-62
2021/05/26 04:43:56;;;;;;;4.00;0.40;;;;;;;9.45;69.68;100317.05;125978;1100;22754;-61
2021/05/26 04:46:27;;;;;;;3.88;0.50;;;;;;;9.54;69.50;100308.63;126138;1100;22922;-62
2021/05/26 04:48:58;;;;;;;2.30;0.33;;;;;;;9.61;69.58;100313.88;126362;1104;22758;-62
2021/05/26 04:51:27;;;;;;;;;;;;;;;9.70;69.31;100315.87;126231;1104;24460;-60
2021/05/26 04:53:57;;;;;;;4.43;0.40;;;;;;;9.77;69.18;100309.94;126181;1099;21467;-60
2021/05/26 04:56:26;;;;;;;4.90;0.60;;;;;;;9.87;69.16;100311.42;126158;1104;22883;-60
2021/05/26 04:58:56;;;;;;;6.55;0.60;;;;;;;9.99;69.02;100312.47;125884;1104;22743;-61
2021/05/26 05:01:26;;;;;;;3.28;0.40;;;;;;;10.11;68.52;100319.86;125918;1100;27107;-60
2021/05/26 05:03:57;;;;;;;4.25;0.50;;;;;;;10.25;68.46;100327.52;125979;1098;26207;-59
2021/05/26 05:06:27;;;;;;;2.30;0.40;;;;;;;10.38;68.22;100319.69;126014;1099;27157;-60
2021/05/26 05:08:57;;;;;;;4.13;0.50;;;;;;;10.47;68.02;100322.39;126051;1099;25745;-60
2021/05/26 05:11:27;;;;;;;3.48;0.60;;;;;;;10.57;68.17;100332.27;126054;1100;22765;-61
2021/05/26 05:13:57;;;;;;;4.78;0.55;;;;;;;10.64;67.91;100323.52;126013;1099;27132;-61
2021/05/26 05:16:27;;;;;;;3.55;0.60;;;;;;;10.71;67.38;100330.75;125865;1104;22769;-63
2021/05/26 05:18:57;;;;;;;7.73;0.50;;;;;;;10.81;67.44;100333.00;125953;1104;22731;-59
2021/05/26 05:21:27;;;;;;;5.43;0.60;;;;;;;10.91;67.35;100325.30;126024;1104;22744;-59
2021/05/26 05:23:57;;;;;;;3.75;0.50;;;;;;;11.00;67.27;100325.22;126056;1104;22754;-61
2021/05/26 05:26:28;;;;;;;2.98;0.50;;;;;;;11.09;66.67;100322.36;126194;1099;25746;-61
2021/05/26 05:28:57;;;;;;;;;;;;;;;11.19;66.74;100326.59;126176;1100;25826;-61
2021/05/26 05:31:30;;;;;;;3.33;0.70;;;;;;;11.27;66.97;100322.94;126014;1104;21471;-60
2021/05/26 05:34:00;;;;;;;6.93;0.80;;;;;;;11.40;66.41;100322.63;125933;1104;22754;-59
2021/05/26 05:36:31;;;;;;;3.33;0.40;;;;;;;11.48;65.97;100320.23;125884;1104;25699;-59
2021/05/26 05:39:01;;;;;;;5.75;0.58;;;;;;;11.53;66.01;100320.30;125972;1104;22741;-59
2021/05/26 05:41:31;;;;;;;7.58;0.60;;;;;;;11.56;65.76;100318.58;126055;1099;27170;-59
2021/05/26 05:44:01;;;;;;;6.47;0.90;;;;;;;11.60;65.65;100319.92;125968;1104;22838;-60
2021/05/26 05:46:31;;;;;;;3.45;0.60;;;;;;;11.68;65.61;100315.50;125970;1100;22743;-59
2021/05/26 05:49:01;;;;;;;3.95;0.33;;;;;;;11.74;65.30;100312.78;126017;1099;22774;-60
2021/05/26 05:51:31;;;;;;;2.08;0.30;;;;;;;11.79;64.90;100312.89;126133;1104;22951;-60
2021/05/26 05:54:05;;;;;;;3.47;0.40;;;;;;;11.82;64.81;100323.09;126109;1104;22714;-60
2021/05/26 05:56:35;;;;;;;2.93;0.50;;;;;;;11.83;64.80;100319.05;125974;1104;23264;-60
2021/05/26 05:59:05;;;;;;;4.27;0.60;;;;;;;11.87;64.90;100319.62;126064;1105;22758;-60
2021/05/26 06:01:35;;;;;;;3.73;1.13;;;;;;;11.91;64.68;100320.19;126108;1099;25733;-62
2021/05/26 06:04:11;;;;;;;4.88;0.50;;;;;;;11.95;64.54;100317.17;125981;1105;22778;-59
2021/05/26 06:06:41;;;;;;;1.65;0.30;;;;;;;11.99;64.50;100321.31;126019;1104;22725;-59
2021/05/26 06:09:13;;;;;;;3.40;0.40;;;;;;;12.06;64.34;100323.69;126015;1104;22783;-59
2021/05/26 06:11:43;;;;;;;3.87;0.40;;;;;;;12.11;64.02;100331.41;126012;1100;26164;-59
2021/05/26 06:14:14;;;;;;;4.48;0.38;;;;;;;12.15;64.40;100329.17;125945;1104;24158;-60
2021/05/26 06:16:42;;;;;;;;;;;;;;;12.18;64.25;100328.20;125981;1104;23160;-61
2021/05/26 06:19:14;;;;;;;2.73;0.40;;;;;;;12.24;64.48;100333.09;126114;1104;21470;-60
2021/05/26 06:21:45;;;;;;;7.05;0.50;;;;;;;12.28;63.85;100337.23;127132;1104;23089;-63
2021/05/26 06:24:20;;;;;;;2.90;0.40;;;;;;;12.33;64.02;100327.38;127236;1104;22741;-61
2021/05/26 06:26:50;;;;;;;2.70;0.40;;;;;;;12.43;63.94;100335.16;126137;1104;22770;-62
2021/05/26 06:29:24;;;;;;;3.05;0.43;;;;;;;12.54;63.71;100334.53;125960;1104;22758;-61
2021/05/26 06:31:55;;;;;;;6.20;0.60;;;;;;;12.66;63.89;100333.40;126141;1099;26245;-60
2021/05/26 06:34:26;;;;;;;2.57;0.30;;;;;;;12.77;63.60;100344.72;125981;1099;27199;-60
2021/05/26 06:36:59;;;;;;;5.27;0.43;;;;;;;12.85;62.67;100335.39;126065;1099;25755;-60
2021/05/26 06:39:30;;;;;;;2.85;0.50;;;;;;;12.92;62.88;100331.39;126151;1099;26563;-60
2021/05/26 06:42:00;;;;;;;3.77;0.60;;;;;;;13.00;62.93;100324.09;125961;1104;22748;-61
2021/05/26 06:44:33;;;;;;;;;;;;;;;13.08;62.89;100321.67;125971;1099;26379;-61
2021/05/26 06:47:03;;;;;;;3.70;0.40;;;;;;;13.18;62.45;100323.79;125976;1104;21468;-61
2021/05/26 06:49:33;;;;;;;3.05;0.40;;;;;;;13.30;62.59;100319.07;125966;1104;24441;-60
2021/05/26 06:52:03;;;;;;;;;;;;;;;13.41;61.70;100324.77;126025;1098;25745;-60
2021/05/26 06:54:33;;;;;;;5.83;0.43;;;;;;;13.47;62.13;100322.80;126068;1098;25661;-61
2021/05/26 06:57:04;;;;;;;5.50;0.57;;;;;;;13.52;61.66;100331.25;126044;1104;23125;-61
2021/05/26 06:59:34;;;;;;;4.75;0.60;;;;;;;13.59;61.40;100330.04;126060;1099;25697;-60
2021/05/26 07:02:04;;;;;;;3.30;0.53;;;;;;;13.70;59.69;100330.11;126096;1098;27244;-59
2021/05/26 07:04:36;;;;;;;3.23;0.58;;;;;;;13.81;60.54;100313.36;126049;1104;22744;-61
2021/05/26 07:07:06;;;;;;;4.20;0.50;;;;;;;13.91;60.02;100316.73;125921;1104;22750;-59
2021/05/26 07:09:39;;;;;;;2.18;0.43;;;;;;;13.99;59.64;100317.84;126193;1099;27173;-60
2021/05/26 07:12:11;;;;;;;3.45;0.50;;;;;;;14.00;59.66;100317.33;125977;1104;22768;-59
2021/05/26 07:14:44;;;;;;;3.50;0.30;;;;;;;13.97;59.49;100325.95;125917;1104;22886;-59
2021/05/26 07:17:15;;;;;;;4.37;0.40;;;;;;;13.99;59.24;100326.26;126034;1104;22765;-62
2021/05/26 07:19:44;;;;;;;;;;;;;;;14.01;59.27;100329.33;126088;1104;22745;-61
2021/05/26 07:22:14;;;;;;;4.20;0.50;;;;;;;14.06;59.04;100322.97;126008;1098;25708;-59
2021/05/26 07:24:44;;;;;;;4.00;0.60;;;;;;;14.14;59.03;100333.23;126001;1100;27087;-59
2021/05/26 07:27:15;;;;;;;3.70;0.40;;;;;;;14.19;58.57;100317.69;125996;1100;22822;-60
2021/05/26 07:29:45;;;;;;;2.98;0.40;;;;;;;14.22;58.34;100317.45;125936;1100;27126;-60
2021/05/26 07:32:15;;;;;;;5.53;0.70;;;;;;;14.30;57.88;100314.95;125995;1099;27080;-61
2021/05/26 07:34:45;;;;;;;6.73;0.40;;;;;;;14.41;58.17;100315.02;126039;1099;27106;-61
2021/05/26 07:37:16;;;;;;;4.90;0.50;;;;;;;14.55;57.96;100317.64;125981;1100;22761;-61
2021/05/26 07:39:48;;;;;;;3.97;0.50;;;;;;;14.82;58.64;100319.01;125985;1099;25992;-60
2021/05/26 07:42:18;;;;;;;6.55;0.65;;;;;;;15.03;57.61;100311.91;126126;1104;22713;-60
2021/05/26 07:44:48;;;;;;;4.23;0.50;;;;;;;15.22;57.78;100310.16;125952;1099;27132;-60
2021/05/26 07:47:18;;;;;;;2.88;0.33;;;;;;;15.48;57.54;100309.19;125995;1104;22828;-61
2021/05/26 07:49:48;;;;;;;5.67;0.43;;;;;;;15.64;56.51;100308.41;126082;1104;22744;-61
2021/05/26 07:52:20;;;;;;;1.98;0.38;;;;;;;15.77;55.18;100311.45;126016;1105;22754;-60
2021/05/26 07:54:52;;;;;;;4.05;0.50;;;;;;;15.85;55.92;100307.61;126061;1104;22744;-60
2021/05/26 07:57:22;;;;;;;4.83;0.43;;;;;;;15.85;55.15;100304.80;126010;1104;23567;-60
2021/05/26 07:59:51;;;;;;;;;;;;;;;15.87;55.35;100307.12;126208;1104;24265;-61
2021/05/26 08:02:21;;;;;;;2.25;0.40;;;;;;;15.89;54.84;100308.11;125886;1098;25708;-60
2021/05/26 08:04:52;;;;;;;;;;;;;;;15.91;54.24;100314.00;125979;1104;22799;-62
2021/05/26 08:07:21;;;;;;;;;;;;;;;15.89;54.04;100305.30;125919;1104;21486;-60
2021/05/26 08:09:52;;;;;;;1.50;0.40;;;;;;;15.91;54.14;100313.25;126034;1104;21471;-59
2021/05/26 08:12:20;;;;;;;;;;;;;;;15.87;53.78;100313.49;126059;1104;23566;-60
2021/05/26 08:14:50;;;;;;;4.75;0.35;;;;;;;15.85;53.32;100309.69;125908;1104;21465;-60
2021/05/26 08:17:21;;;;;;;3.83;0.43;;;;;;;15.81;53.73;100315.55;125880;1104;22778;-61
2021/05/26 08:19:51;;;;;;;6.00;0.50;;;;;;;15.82;54.01;100307.88;126124;1100;22754;-61
2021/05/26 08:22:22;;;;;;;8.80;0.60;;;;;;;15.87;54.00;100299.42;125898;1099;22754;-62
2021/05/26 08:24:52;;;;;;;2.05;0.30;;;;;;;15.91;53.35;100299.17;126031;1104;22736;-59
2021/05/26 08:27:22;;;;;;;5.83;0.68;;;;;;;15.91;53.03;100299.17;125902;1098;27645;-61
2021/05/26 08:29:53;;;;;;;;;;;;;;;15.95;53.43;100308.13;125899;1104;22756;-60
2021/05/26 08:32:23;;;;;;;2.50;0.40;;;;;;;15.97;53.31;100306.31;125827;1104;24186;-61
2021/05/26 08:34:55;;;;;;;6.30;0.93;;;;;;;15.98;53.69;100304.27;125840;1100;22747;-61
2021/05/26 08:37:25;;;;;;;5.10;0.50;;;;;;;16.03;53.19;100295.83;126023;1105;22714;-61
2021/05/26 08:39:56;;;;;;;3.63;0.48;;;;;;;16.06;52.87;100294.00;125849;1098;25880;-62
2021/05/26 08:42:26;;;;;;;4.45;0.50;;;;;;;16.10;52.04;100300.14;126045;1099;27309;-60
2021/05/26 08:44:57;;;;;;;3.35;0.53;;;;;;;16.21;52.39;100291.67;125887;1104;22758;-60
2021/05/26 08:47:37;;;;;;;5.30;0.60;;;;;;;16.36;52.02;100283.69;125920;1097;25839;-60
2021/05/26 08:50:13;;;;;;;4.45;0.50;;;;;;;16.47;51.98;100274.42;125931;1104;22765;-60
2021/05/26 08:52:43;;;;;;;3.10;0.70;;;;;;;16.59;51.94;100275.93;126052;1104;22785;-63
2021/05/26 08:55:15;;;;;;;5.30;0.50;;;;;;;16.73;51.51;100277.64;126033;1099;25247;-61
2021/05/26 08:57:48;;;;;;;3.75;0.40;;;;;;;16.84;51.67;100272.70;126011;1100;27214;-60
2021/05/26 09:00:22;;;;;;;10.00;0.43;;;;;;;16.99;51.16;100275.95;126053;1104;22706;-59
2021/05/26 09:02:55;;;;;;;3.20;0.50;;;;;;;17.12;50.83;100272.53;126079;1104;22743;-59
2021/05/26 09:05:26;;;;;;;2.93;0.40;;;;;;;17.22;50.83;100265.27;126033;1104;22761;-60
2021/05/26 09:07:58;;;;;;;3.15;0.40;;;;;;;17.39;50.39;100259.49;125962;1104;22754;-60
2021/05/26 09:10:29;;;;;;;5.80;0.50;;;;;;;17.49;50.82;100261.48;125786;1104;22767;-61
2021/05/26 09:13:02;;;;;;;5.30;1.00;;;;;;;17.62;49.51;100267.28;125876;1100;22775;-60
2021/05/26 09:15:40;;;;;;;4.85;0.40;;;;;;;17.52;47.83;100259.67;125828;1104;22961;-60
2021/05/26 09:18:12;;;;;;;4.70;0.40;;;;;;;17.51;48.61;100260.95;125845;1104;23356;-61
2021/05/26 09:20:50;;;;;;;5.00;0.50;;;;;;;17.52;47.63;100265.33;125998;1104;22738;-63
2021/05/26 09:23:30;;;;;;;6.00;0.43;;;;;;;17.40;47.99;100252.58;126245;1104;22758;-60
2021/05/26 09:26:05;;;;;;;2.83;0.40;;;;;;;17.39;48.35;100253.85;125812;1104;24170;-61
2021/05/26 09:28:36;;;;;;;4.43;0.63;;;;;;;17.42;47.19;100247.91;125739;1104;24448;-61
2021/05/26 09:31:13;;;;;;;2.03;0.30;;;;;;;17.43;47.63;100245.86;125787;1104;22738;-61
2021/05/26 09:33:47;;;;;;;4.10;0.40;;;;;;;17.49;48.13;100236.09;125776;1100;22702;-60
2021/05/26 09:36:25;;;;;;;5.95;0.40;;;;;;;17.56;47.75;100249.63;125911;1104;22887;-62
2021/05/26 09:38:59;;;;;;;5.33;0.40;;;;;;;17.57;47.41;100248.33;125885;1097;26934;-60
2021/05/26 09:41:32;;;;;;;3.73;0.30;;;;;;;17.52;47.52;100228.63;125793;1104;22767;-61
2021/05/26 09:44:09;;;;;;;4.95;0.50;;;;;;;17.41;46.82;100242.80;125967;1104;22752;-62
2021/05/26 09:46:40;;;;;;;3.60;0.50;;;;;;;17.32;47.53;100232.61;125923;1104;22782;-59
2021/05/26 09:49:16;;;;;;;1.60;0.30;;;;;;;17.33;47.70;100239.80;125943;1105;22826;-61
2021/05/26 09:51:49;;;;;;;3.05;0.40;;;;;;;17.33;47.42;100236.98;126002;1100;22779;-61
2021/05/26 09:54:23;;;;;;;5.20;0.60;;;;;;;17.29;47.56;100228.03;125887;1104;22825;-60
2021/05/26 09:56:54;;;;;;;3.95;0.35;;;;;;;17.26;47.99;100234.72;125889;1097;25998;-61
2021/05/26 09:59:24;;;;;;;4.17;0.50;;;;;;;17.35;47.68;100227.98;125919;1104;24447;-61
2021/05/26 10:01:57;;;;;;;3.68;0.40;;;;;;;17.48;47.71;100223.25;125891;1104;22777;-60
2021/05/26 10:04:28;;;;;;;3.60;0.40;;;;;;;17.55;47.24;100213.45;125844;1104;22728;-61
2021/05/26 10:07:19;;;;;;;;;;;;;;;;;;;;;
2021/05/26 10:09:54;;;;;;;4.67;0.50;;;;;;;17.66;46.44;100219.77;125858;1104;22743;-62
2021/05/26 10:12:26;;;;;;;2.15;0.40;;;;;;;17.59;46.20;100225.20;125908;1099;22728;-64
2021/05/26 10:15:01;;;;;;;3.80;0.70;;;;;;;17.51;46.42;100224.27;125864;1099;26293;-61
2021/05/26 10:17:36;;;;;;;5.95;0.50;;;;;;;17.44;46.56;100217.11;126188;1104;22764;-61
2021/05/26 10:20:14;;;;;;;5.20;0.40;;;;;;;17.40;47.04;100218.71;125901;1104;22829;-61
2021/05/26 10:22:49;;;;;;;2.90;0.30;;;;;;;17.38;46.98;100218.47;125970;1098;25855;-62
2021/05/26 10:25:22;;;;;;;5.00;0.30;;;;;;;17.37;46.98;100217.70;125890;1099;26356;-60
2021/05/26 10:27:54;;;;;;;5.55;0.40;;;;;;;17.36;46.17;100215.41;125850;1099;22841;-62
2021/05/26 10:30:30;;;;;;;7.00;0.50;;;;;;;17.24;46.20;100226.02;125974;1104;22974;-61
2021/05/26 10:33:04;;;;;;;3.70;0.50;;;;;;;17.09;45.86;100219.23;126115;1104;24456;-62
2021/05/26 10:35:58;;;;;;;2.23;0.30;;;;;;;16.93;46.52;100209.59;126574;1104;22912;-62
2021/05/26 10:38:28;;;;;;;4.10;0.40;;;;;;;16.85;46.29;100215.03;126030;1104;22737;-61
2021/05/26 10:40:57;;;;;;;;;;;;;;;16.84;47.08;100209.92;125843;1104;22907;-61
2021/05/26 10:43:32;;;;;;;3.35;0.70;;;;;;;16.86;46.79;100196.81;126054;1104;21564;-61
2021/05/26 10:46:03;;;;;;;4.15;0.60;;;;;;;16.88;46.96;100199.13;125949;1099;26245;-61
2021/05/26 10:49:07;;;;;;;5.90;0.50;;;;;;;16.88;47.08;100191.41;125897;1100;22799;-61
2021/05/26 10:52:09;;;;;;;1.90;0.30;;;;;;;16.90;46.75;100199.38;126191;1104;22758;-62
2021/05/26 10:55:03;;;;;;;1.70;0.30;;;;;;;16.85;47.11;100192.48;125924;1104;22749;-60
2021/05/26 10:58:13;;;;;;;2.20;0.40;;;;;;;16.84;47.08;100196.57;125917;1097;27167;-62
2021/05/26 11:00:45;;;;;;;3.47;0.33;;;;;;;16.86;46.70;100181.97;125988;1098;23061;-62
2021/05/26 11:03:42;;;;;;;3.40;0.40;;;;;;;16.83;46.88;100188.64;126131;1100;27240;-61
2021/05/26 11:06:38;;;;;;;4.00;0.50;;;;;;;16.78;47.35;100198.66;125874;1105;22735;-61
2021/05/26 11:09:10;;;;;;;2.90;0.40;;;;;;;16.78;46.75;100189.47;125894;1099;25800;-60
2021/05/26 11:11:48;;;;;;;3.00;0.70;;;;;;;16.77;46.64;100177.41;125939;1100;22769;-61
2021/05/26 11:14:40;;;;;;;3.75;0.50;;;;;;;16.80;46.45;100184.06;125912;1104;22848;-62
2021/05/26 11:17:38;;;;;;;3.60;0.30;;;;;;;16.85;45.74;100186.84;125787;1104;22809;-62
2021/05/26 11:20:22;;;;;;;1.95;0.40;;;;;;;16.89;45.78;100178.09;125756;1104;22767;-60
2021/05/26 11:22:52;;;;;;;3.25;0.20;;;;;;;16.94;45.88;100166.02;125843;1104;22769;-61
2021/05/26 11:25:22;;;;;;;4.65;0.45;;;;;;;16.94;46.08;100174.47;125889;1104;22754;-62
2021/05/26 11:27:58;;;;;;;2.65;0.50;;;;;;;16.94;46.29;100166.02;125788;1104;22910;-61
2021/05/26 11:34:00;;;;;;;4.35;0.50;;;;;;;17.08;46.37;100161.27;125772;1097;22772;-62
2021/05/26 11:39:29;;;;;;;5.00;0.50;;;;;;;17.13;46.15;100144.31;125716;1104;22872;-60
2021/05/26 11:42:12;;;;;;;6.60;0.55;;;;;;;17.25;46.19;100142.14;125825;1104;22743;-61
2021/05/26 11:44:45;;;;;;;8.25;0.50;;;;;;;17.38;46.36;100136.64;125944;1105;22996;-62
2021/05/26 11:47:31;;;;;;;3.60;0.40;;;;;;;17.45;46.05;100144.50;125968;1104;22740;-60
2021/05/26 11:50:18;;;;;;;3.80;0.30;;;;;;;17.55;46.04;100135.18;125809;1099;27303;-60
2021/05/26 11:52:52;;;;;;;1.95;0.40;;;;;;;17.74;46.23;100133.17;125831;1104;22744;-60
2021/05/26 11:55:24;;;;;;;2.80;0.30;;;;;;;17.89;45.49;100140.44;125828;1104;22743;-62
2021/05/26 11:57:55;;;;;;;3.50;0.50;;;;;;;17.92;44.62;100125.27;125857;1098;22748;-62
2021/05/26 12:00:31;;;;;;;5.55;0.60;;;;;;;17.90;44.76;100122.22;125713;1104;22926;-62